createdAt,value
2023-04-19T00:00:09.526Z,55.00
2023-04-19T00:02:58.766Z,55.00
2023-04-19T00:05:27.241Z,57.00
2023-04-19T00:07:55.437Z,53.50
2023-04-19T00:10:23.470Z,56.00
2023-04-19T00:15:19.601Z,55.00
2023-04-19T00:17:47.550Z,55.50
2023-04-19T00:20:15.964Z,57.50
2023-04-19T00:22:43.974Z,53.33
2023-04-19T00:27:39.803Z,56.00
2023-04-19T00:30:08.175Z,57.00
2023-04-19T00:32:36.304Z,52.00
2023-04-19T00:35:04.560Z,54.00
2023-04-19T00:37:33.437Z,54.50
2023-04-19T00:40:01.393Z,55.00
2023-04-19T00:42:29.332Z,53.00
2023-04-19T00:44:57.352Z,47.50
2023-04-19T00:47:25.655Z,53.00
2023-04-19T00:49:53.568Z,53.00
2023-04-19T00:52:22.648Z,51.00
2023-04-19T00:54:50.644Z,53.00
2023-04-19T00:57:18.720Z,56.00
2023-04-19T00:59:46.786Z,60.00
2023-04-19T01:02:14.697Z,57.00
2023-04-19T01:04:42.771Z,56.00
2023-04-19T01:09:43.660Z,59.00
2023-04-19T01:12:11.661Z,54.00
2023-04-19T01:14:40.036Z,57.00
2023-04-19T01:17:08.692Z,59.00
2023-04-19T01:19:37.341Z,58.00
2023-04-19T01:22:06.595Z,59.00
2023-04-19T01:27:03.542Z,55.00
2023-04-19T01:29:31.449Z,54.00
2023-04-19T01:31:59.480Z,58.67
2023-04-19T01:36:55.935Z,61.00
2023-04-19T01:39:26.177Z,58.50
2023-04-19T01:41:54.125Z,58.50
2023-04-19T01:44:22.971Z,60.00
2023-04-19T01:46:51.104Z,59.00
2023-04-19T01:49:19.182Z,58.50
2023-04-19T01:51:47.008Z,57.67
2023-04-19T01:54:15.096Z,58.00
2023-04-19T01:56:43.300Z,59.00
2023-04-19T01:59:11.211Z,58.00
2023-04-19T02:01:39.139Z,58.00
2023-04-19T02:04:07.871Z,56.50
2023-04-19T02:06:36.036Z,59.50
2023-04-19T02:09:05.422Z,55.00
2023-04-19T02:11:33.406Z,59.00
2023-04-19T02:14:01.536Z,60.00
2023-04-19T02:18:57.678Z,56.50
2023-04-19T02:21:26.047Z,58.00
2023-04-19T02:23:53.939Z,61.00
2023-04-19T02:26:22.219Z,56.00
2023-04-19T02:31:19.076Z,57.00
2023-04-19T02:33:47.011Z,56.00
2023-04-19T02:36:14.986Z,59.00
2023-04-19T02:38:43.396Z,58.50
2023-04-19T02:41:11.321Z,55.00
2023-04-19T02:43:40.653Z,56.50
2023-04-19T02:46:08.579Z,56.00
2023-04-19T02:48:36.651Z,55.00
2023-04-19T02:51:04.634Z,54.00
2023-04-19T02:53:32.743Z,55.00
2023-04-19T02:56:01.502Z,57.00
2023-04-19T02:58:29.424Z,56.50
2023-04-19T03:01:01.897Z,55.00
2023-04-19T03:05:58.242Z,55.00
2023-04-19T03:08:26.693Z,53.50
2023-04-19T03:10:54.696Z,54.00
2023-04-19T03:15:50.803Z,55.50
2023-04-19T03:18:22.629Z,54.50
2023-04-19T03:20:51.572Z,53.00
2023-04-19T03:23:19.725Z,57.50
2023-04-19T03:25:48.301Z,53.00
2023-04-19T03:28:23.745Z,57.00
2023-04-19T03:31:24.459Z,55.00
2023-04-19T03:33:52.952Z,57.50
2023-04-19T03:36:22.957Z,55.00
2023-04-19T03:38:51.309Z,55.50
2023-04-19T03:41:21.233Z,55.00
2023-04-19T03:43:51.170Z,52.00
2023-04-19T03:46:19.175Z,57.00
2023-04-19T03:48:47.816Z,57.50
2023-04-19T03:51:16.888Z,57.00
2023-04-19T03:53:45.573Z,57.00
2023-04-19T03:56:14.034Z,55.50
2023-04-19T03:58:42.846Z,57.50
2023-04-19T04:01:20.368Z,57.50
2023-04-19T04:03:48.802Z,57.00
2023-04-19T04:06:17.053Z,55.00
2023-04-19T04:08:44.867Z,53.50
2023-04-19T04:11:12.759Z,54.00
2023-04-19T04:13:40.830Z,56.00
2023-04-19T04:16:13.678Z,52.50
2023-04-19T04:18:43.478Z,55.00
2023-04-19T04:21:12.836Z,54.00
2023-04-19T04:23:42.590Z,53.00
2023-04-19T04:26:15.077Z,51.00
2023-04-19T04:28:57.695Z,53.00
2023-04-19T04:31:26.161Z,55.00
2023-04-19T04:33:55.390Z,51.67
2023-04-19T04:36:23.577Z,52.00
2023-04-19T04:38:51.657Z,52.50
2023-04-19T04:41:22.960Z,54.00
2023-04-19T04:44:04.627Z,53.00
2023-04-19T04:46:39.476Z,54.50
2023-04-19T04:49:07.843Z,51.00
2023-04-19T04:51:36.322Z,51.00
2023-04-19T04:54:05.823Z,54.00
2023-04-19T04:56:34.210Z,52.00
2023-04-19T04:59:02.306Z,55.00
2023-04-19T05:01:34.844Z,55.50
2023-04-19T05:04:03.300Z,53.00
2023-04-19T05:08:59.229Z,53.00
2023-04-19T05:11:32.316Z,52.00
2023-04-19T05:14:01.025Z,51.00
2023-04-19T05:16:29.135Z,55.50
2023-04-19T05:18:57.246Z,53.50
2023-04-19T05:21:25.592Z,50.00
2023-04-19T05:23:54.893Z,50.00
2023-04-19T05:26:23.951Z,52.00
2023-04-19T05:28:52.288Z,50.00
2023-04-19T05:31:35.217Z,52.00
2023-04-19T05:34:22.901Z,52.00
2023-04-19T05:36:51.452Z,51.50
2023-04-19T05:39:19.522Z,52.00
2023-04-19T05:41:48.286Z,52.00
2023-04-19T05:44:16.791Z,49.50
2023-04-19T05:46:44.995Z,47.00
2023-04-19T05:49:14.640Z,49.50
2023-04-19T05:51:42.670Z,49.00
2023-04-19T05:54:23.483Z,50.00
2023-04-19T05:56:51.408Z,50.00
2023-04-19T05:59:19.440Z,49.00
2023-04-19T06:01:47.602Z,47.50
2023-04-19T06:04:15.892Z,50.00
2023-04-19T06:06:44.469Z,50.00
2023-04-19T06:09:15.596Z,51.50
2023-04-19T06:11:50.663Z,49.00
2023-04-19T06:14:19.828Z,50.00
2023-04-19T06:16:48.265Z,51.00
2023-04-19T06:19:16.322Z,52.00
2023-04-19T06:21:44.421Z,53.00
2023-04-19T06:24:12.364Z,56.00
2023-04-19T06:26:40.530Z,54.00
2023-04-19T06:29:08.421Z,53.00
2023-04-19T06:31:36.341Z,52.00
2023-04-19T06:34:04.375Z,57.00
2023-04-19T06:36:32.427Z,51.00
2023-04-19T06:39:00.609Z,51.00
2023-04-19T06:41:28.607Z,52.00
2023-04-19T06:43:56.578Z,47.00
2023-04-19T06:46:24.578Z,50.00
2023-04-19T06:48:52.532Z,46.00
2023-04-19T06:51:20.507Z,47.00
2023-04-19T06:53:50.483Z,44.00
2023-04-19T06:56:18.429Z,47.00
2023-04-19T06:58:46.348Z,49.50
2023-04-19T07:01:14.478Z,50.00
2023-04-19T07:03:42.635Z,49.00
2023-04-19T07:06:10.705Z,47.00
2023-04-19T07:08:49.302Z,46.00
2023-04-19T07:11:18.063Z,46.50
2023-04-19T07:13:46.843Z,45.00
2023-04-19T07:16:14.941Z,50.00
2023-04-19T07:18:44.074Z,48.00
2023-04-19T07:21:12.235Z,51.00
2023-04-19T07:23:40.467Z,45.50
2023-04-19T07:26:08.471Z,44.00
2023-04-19T07:28:36.598Z,41.00
2023-04-19T07:31:04.821Z,42.50
2023-04-19T07:33:32.862Z,43.00
2023-04-19T07:36:00.796Z,43.00
2023-04-19T07:38:28.752Z,42.00
2023-04-19T07:40:56.777Z,42.00
2023-04-19T07:43:24.845Z,37.00
2023-04-19T07:45:53.383Z,38.00
2023-04-19T07:48:21.257Z,35.50
2023-04-19T07:50:49.400Z,38.50
2023-04-19T07:53:18.430Z,39.00
2023-04-19T07:55:46.392Z,37.00
2023-04-19T07:58:14.916Z,34.50
2023-04-19T08:00:42.936Z,37.50
2023-04-19T08:03:11.133Z,41.00
2023-04-19T08:05:39.455Z,40.00
2023-04-19T08:08:07.389Z,41.50
2023-04-19T08:10:36.040Z,42.00
2023-04-19T08:13:06.328Z,39.00
2023-04-19T08:18:06.319Z,35.00
2023-04-19T08:20:34.560Z,34.00
2023-04-19T08:23:10.960Z,35.00
2023-04-19T08:25:46.300Z,34.50
2023-04-19T08:28:14.325Z,31.00
2023-04-19T08:30:42.557Z,31.00
2023-04-19T08:35:41.143Z,34.00
2023-04-19T08:38:09.706Z,30.50
2023-04-19T08:43:09.830Z,34.00
2023-04-19T08:45:38.039Z,27.00
2023-04-19T08:48:06.494Z,30.33
2023-04-19T08:50:40.709Z,27.00
2023-04-19T08:53:23.896Z,27.00
2023-04-19T08:56:10.831Z,30.00
2023-04-19T09:04:06.706Z,26.33
2023-04-19T09:06:39.004Z,23.00
2023-04-19T09:09:34.008Z,32.00
2023-04-19T09:12:03.506Z,23.00
2023-04-19T09:14:31.564Z,25.50
2023-04-19T09:17:19.823Z,25.00
2023-04-19T09:19:50.619Z,24.50
2023-04-19T09:22:19.128Z,26.33
2023-04-19T09:27:30.400Z,27.50
2023-04-19T09:30:00.028Z,25.00
2023-04-19T09:32:28.818Z,32.00
2023-04-19T09:35:00.421Z,22.00
2023-04-19T09:39:59.333Z,22.00
2023-04-19T09:48:01.181Z,21.00
2023-04-19T09:50:31.211Z,22.00
2023-04-19T09:52:59.786Z,20.00
2023-04-19T09:55:29.174Z,17.00
2023-04-19T09:57:58.331Z,20.00
2023-04-19T10:00:27.160Z,19.00
2023-04-19T10:02:58.612Z,12.50
2023-04-19T10:05:27.053Z,5.50
2023-04-19T10:07:59.825Z,8.00
2023-04-19T10:13:18.343Z,12.00
2023-04-19T10:15:52.652Z,7.00
2023-04-19T10:18:25.313Z,7.00
2023-04-19T10:21:02.277Z,11.00
2023-04-19T10:23:30.318Z,12.00
2023-04-19T10:25:59.416Z,8.00
2023-04-19T10:28:31.160Z,8.50
2023-04-19T10:31:03.603Z,10.00
2023-04-19T10:33:36.138Z,9.00
2023-04-19T10:36:04.472Z,10.50
2023-04-19T10:38:48.120Z,9.50
2023-04-19T10:41:17.892Z,11.00
2023-04-19T10:43:56.152Z,8.00
2023-04-19T10:46:29.164Z,9.00
2023-04-19T10:48:59.215Z,8.00
2023-04-19T10:51:33.279Z,11.00
2023-04-19T10:54:01.848Z,10.00
2023-04-19T10:56:32.705Z,8.50
2023-04-19T10:59:01.264Z,7.00
2023-04-19T11:01:34.435Z,8.00
2023-04-19T11:04:04.857Z,8.00
2023-04-19T11:06:33.613Z,9.00
2023-04-19T11:09:05.524Z,13.50
2023-04-19T11:11:36.927Z,10.00
2023-04-19T11:14:05.737Z,14.00
2023-04-19T11:16:45.003Z,8.00
2023-04-19T11:19:18.099Z,21.00
2023-04-19T11:21:47.281Z,10.00
2023-04-19T11:24:21.576Z,17.50
2023-04-19T11:26:49.509Z,16.00
2023-04-19T11:29:17.674Z,17.00
2023-04-19T11:31:46.570Z,10.50
2023-04-19T11:34:15.349Z,11.50
2023-04-19T11:36:52.840Z,9.00
2023-04-19T11:39:21.966Z,8.00
2023-04-19T11:41:49.875Z,8.00
2023-04-19T11:44:20.442Z,7.00
2023-04-19T11:47:05.231Z,5.00
2023-04-19T11:49:33.800Z,5.00
2023-04-19T11:52:05.282Z,6.00
2023-04-19T11:54:34.179Z,1.50
2023-04-19T11:57:05.683Z,1.00
2023-04-19T11:59:35.336Z,3.00
2023-04-19T12:02:06.457Z,4.00
2023-04-19T12:04:35.486Z,7.00
2023-04-19T12:07:04.550Z,6.00
2023-04-19T12:09:34.098Z,8.00
2023-04-19T12:12:02.320Z,4.00
2023-04-19T12:14:31.548Z,5.00
2023-04-19T12:17:09.970Z,6.00
2023-04-19T12:19:43.454Z,9.00
2023-04-19T12:22:15.702Z,6.00
2023-04-19T12:24:43.677Z,7.50
2023-04-19T12:27:11.674Z,3.00
2023-04-19T12:29:39.757Z,3.00
2023-04-19T12:32:07.941Z,3.00
2023-04-19T12:34:35.891Z,4.00
2023-04-19T12:37:06.787Z,4.50
2023-04-19T12:39:34.844Z,9.33
2023-04-19T12:42:03.033Z,8.00
2023-04-19T12:44:30.956Z,9.00
2023-04-19T12:46:58.880Z,5.50
2023-04-19T12:51:57.024Z,7.50
2023-04-19T12:54:25.440Z,12.00
2023-04-19T12:56:53.973Z,9.00
2023-04-19T12:59:22.227Z,10.50
2023-04-19T13:01:50.244Z,8.00
2023-04-19T13:04:18.553Z,8.00
2023-04-19T13:06:46.890Z,8.50
2023-04-19T13:09:15.308Z,8.50
2023-04-19T13:11:43.577Z,10.00
2023-04-19T13:14:11.521Z,8.50
2023-04-19T13:16:39.472Z,20.50
2023-04-19T13:19:07.672Z,22.00
2023-04-19T13:21:35.934Z,20.50
2023-04-19T13:24:03.958Z,20.00
2023-04-19T13:26:32.248Z,27.00
2023-04-19T13:29:00.767Z,17.50
2023-04-19T13:31:31.793Z,17.67
2023-04-19T13:34:00.689Z,19.00
2023-04-19T13:36:28.658Z,18.00
2023-04-19T13:38:56.638Z,19.00
2023-04-19T13:41:24.509Z,19.00
2023-04-19T13:43:52.741Z,23.00
2023-04-19T13:46:20.819Z,18.50
2023-04-19T13:48:48.762Z,17.00
2023-04-19T13:51:16.807Z,15.00
2023-04-19T13:53:44.884Z,20.00
2023-04-19T13:56:12.835Z,15.00
2023-04-19T13:58:40.823Z,17.00
2023-04-19T14:01:09.122Z,20.00
2023-04-19T14:03:37.158Z,20.00
2023-04-19T14:06:05.323Z,17.00
2023-04-19T14:08:33.278Z,15.50
2023-04-19T14:11:01.581Z,7.00
2023-04-19T14:13:29.596Z,9.00
2023-04-19T14:15:57.428Z,9.50
2023-04-19T14:18:25.504Z,6.00
2023-04-19T14:20:53.453Z,8.00
2023-04-19T14:23:21.398Z,9.00
2023-04-19T14:25:49.258Z,8.50
2023-04-19T14:28:17.179Z,7.00
2023-04-19T14:30:45.146Z,8.00
2023-04-19T14:33:13.177Z,10.00
2023-04-19T14:35:41.397Z,6.00
2023-04-19T14:38:09.290Z,9.00
2023-04-19T14:40:37.219Z,6.00
2023-04-19T14:43:05.665Z,7.25
2023-04-19T14:45:33.876Z,7.00
2023-04-19T14:48:02.794Z,5.00
2023-04-19T14:50:30.817Z,5.50
2023-04-19T14:52:58.828Z,6.00
2023-04-19T14:55:27.918Z,12.00
2023-04-19T14:57:55.916Z,6.00
2023-04-19T15:00:23.861Z,6.67
2023-04-19T15:02:51.858Z,8.00
2023-04-19T15:05:22.465Z,8.00
2023-04-19T15:07:50.475Z,5.00
2023-04-19T15:10:18.384Z,14.00
2023-04-19T15:12:46.339Z,14.00
2023-04-19T15:15:14.359Z,15.00
2023-04-19T15:17:42.980Z,16.00
2023-04-19T15:20:11.418Z,15.00
2023-04-19T15:22:39.329Z,15.00
2023-04-19T15:25:07.428Z,14.00
2023-04-19T15:27:35.463Z,22.00
2023-04-19T15:30:04.323Z,25.00
2023-04-19T15:32:36.887Z,33.00
2023-04-19T15:35:06.069Z,31.00
2023-04-19T15:37:34.017Z,22.00
2023-04-19T15:40:01.996Z,22.00
2023-04-19T15:42:30.080Z,16.00
2023-04-19T15:44:58.165Z,49.00
2023-04-19T15:47:26.119Z,44.00
2023-04-19T15:49:54.347Z,37.00
2023-04-19T15:52:23.172Z,123.00
2023-04-19T15:54:52.084Z,76.00
2023-04-19T15:57:19.901Z,43.00
2023-04-19T15:59:47.801Z,39.50
2023-04-19T16:04:47.582Z,44.00
2023-04-19T16:07:15.777Z,53.00
2023-04-19T16:09:43.702Z,48.00
2023-04-19T16:12:11.552Z,78.00
2023-04-19T16:14:40.913Z,15.00
2023-04-19T16:17:08.833Z,13.00
2023-04-19T16:19:36.817Z,17.00
2023-04-19T16:22:05.493Z,17.00
2023-04-19T16:24:33.548Z,16.00
2023-04-19T16:27:01.539Z,17.00
2023-04-19T16:29:29.496Z,19.00
2023-04-19T16:31:57.597Z,17.00
2023-04-19T16:34:25.619Z,25.67
2023-04-19T16:36:53.605Z,19.00
2023-04-19T16:39:21.712Z,36.50
2023-04-19T16:41:49.746Z,44.50
2023-04-19T16:44:17.688Z,39.50
2023-04-19T16:46:45.594Z,26.00
2023-04-19T16:49:14.070Z,22.00
2023-04-19T16:51:42.260Z,20.50
2023-04-19T16:54:10.285Z,23.00
2023-04-19T16:56:38.288Z,33.00
2023-04-19T16:59:06.190Z,38.00
2023-04-19T17:01:34.156Z,40.00
2023-04-19T17:04:02.335Z,39.00
2023-04-19T17:06:30.443Z,38.50
2023-04-19T17:08:58.339Z,27.00
2023-04-19T17:11:26.350Z,25.00
2023-04-19T17:13:56.663Z,28.50
2023-04-19T17:16:25.348Z,27.50
2023-04-19T17:18:56.571Z,31.00
2023-04-19T17:21:24.526Z,23.00
2023-04-19T17:23:52.663Z,35.00
2023-04-19T17:26:21.198Z,31.00
2023-04-19T17:28:49.230Z,31.00
2023-04-19T17:31:17.203Z,31.00
2023-04-19T17:33:45.117Z,30.00
2023-04-19T17:36:12.956Z,35.00
2023-04-19T17:38:40.898Z,35.00
2023-04-19T17:41:15.899Z,41.00
2023-04-19T17:43:44.578Z,40.00
2023-04-19T17:46:12.684Z,46.33
2023-04-19T17:48:40.790Z,49.50
2023-04-19T17:51:08.780Z,80.00
2023-04-19T17:53:37.119Z,69.00
2023-04-19T17:56:05.522Z,52.67
2023-04-19T17:58:35.177Z,59.00
2023-04-19T18:03:34.896Z,88.00
2023-04-19T18:06:03.096Z,99.00
2023-04-19T18:10:58.955Z,96.00
2023-04-19T18:13:28.020Z,78.50
2023-04-19T18:15:56.096Z,75.00
2023-04-19T18:18:24.028Z,61.00
2023-04-19T18:20:52.980Z,59.00
2023-04-19T18:23:20.993Z,79.00
2023-04-19T18:25:55.348Z,85.50
2023-04-19T18:28:23.448Z,136.00
2023-04-19T18:30:51.617Z,146.00
2023-04-19T18:33:19.668Z,96.00
2023-04-19T18:35:47.561Z,98.00
2023-04-19T18:38:15.998Z,97.50
2023-04-19T18:40:44.120Z,86.00
2023-04-19T18:43:11.991Z,58.00
2023-04-19T18:45:40.124Z,175.00
2023-04-19T18:48:09.713Z,64.00
2023-04-19T18:50:38.384Z,52.00
2023-04-19T18:53:06.386Z,53.50
2023-04-19T18:55:34.298Z,55.00
2023-04-19T18:58:02.496Z,56.00
2023-04-19T19:00:30.564Z,58.00
2023-04-19T19:05:26.696Z,90.00
2023-04-19T19:07:54.920Z,90.00
2023-04-19T19:10:48.519Z,92.50
2023-04-19T19:13:13.477Z,76.00
2023-04-19T19:15:41.750Z,61.00
2023-04-19T19:18:09.883Z,58.00
2023-04-19T19:20:37.810Z,61.00
2023-04-19T19:23:05.974Z,69.50
2023-04-19T19:25:34.162Z,71.00
2023-04-19T19:28:09.284Z,78.50
2023-04-19T19:30:42.800Z,62.50
2023-04-19T19:33:11.894Z,61.00
2023-04-19T19:35:40.161Z,54.50
2023-04-19T19:38:08.309Z,61.50
2023-04-19T19:40:40.859Z,163.50
2023-04-19T19:43:24.291Z,55.00
2023-04-19T19:45:52.192Z,57.00
2023-04-19T19:48:20.153Z,55.50
2023-04-19T19:51:17.131Z,55.00
2023-04-19T19:53:36.786Z,53.00
2023-04-19T19:58:50.136Z,50.00
2023-04-19T20:01:22.284Z,49.00
2023-04-19T20:03:51.527Z,51.50
2023-04-19T20:07:13.511Z,54.00
2023-04-19T20:09:08.256Z,54.00
2023-04-19T20:11:39.590Z,127.33
2023-04-19T20:14:07.723Z,77.50
2023-04-19T20:16:35.663Z,97.00
2023-04-19T20:19:12.399Z,57.50
2023-04-19T20:21:40.473Z,47.00
2023-04-19T20:24:08.486Z,45.00
2023-04-19T20:26:36.411Z,39.00
2023-04-19T20:29:04.493Z,37.00
2023-04-19T20:31:32.501Z,38.00
2023-04-19T20:34:00.703Z,38.00
2023-04-19T20:36:34.888Z,40.00
2023-04-19T20:41:37.622Z,133.00
2023-04-19T20:44:06.518Z,47.50
2023-04-19T20:46:36.332Z,42.50
2023-04-19T20:49:06.038Z,134.00
2023-04-19T20:51:35.533Z,131.50
2023-04-19T20:56:34.567Z,76.00
2023-04-19T21:01:34.990Z,86.50
2023-04-19T21:04:05.888Z,95.00
2023-04-19T21:06:34.910Z,96.00
2023-04-19T21:09:04.432Z,84.00
2023-04-19T21:11:32.809Z,85.50
2023-04-19T21:14:00.880Z,65.00
2023-04-19T21:16:32.508Z,56.00
2023-04-19T21:24:00.265Z,87.00
2023-04-19T21:26:28.397Z,88.50
2023-04-19T21:28:56.286Z,89.00
2023-04-19T21:31:36.769Z,72.00
2023-04-19T21:36:34.260Z,85.00
2023-04-19T21:39:02.230Z,87.50
2023-04-19T21:41:30.285Z,85.50
2023-04-19T21:43:58.157Z,77.50
2023-04-19T21:46:26.090Z,72.50
2023-04-19T21:48:55.696Z,71.00
2023-04-19T21:53:53.249Z,66.00
2023-04-19T21:56:21.217Z,58.50
2023-04-19T21:58:49.107Z,52.00
2023-04-19T22:01:18.992Z,53.00
2023-04-19T22:03:48.098Z,54.50
2023-04-19T22:06:17.133Z,53.00
2023-04-19T22:08:45.166Z,93.00
2023-04-19T22:11:15.627Z,58.00
2023-04-19T22:13:44.325Z,55.00
2023-04-19T22:16:12.390Z,56.00
2023-04-19T22:18:41.504Z,61.00
2023-04-19T22:21:10.850Z,58.00
2023-04-19T22:23:38.801Z,70.00
2023-04-19T22:26:06.798Z,57.00
2023-04-19T22:28:36.062Z,59.33
2023-04-19T22:31:03.915Z,58.00
2023-04-19T22:33:31.929Z,60.00
2023-04-19T22:35:59.902Z,58.00
2023-04-19T22:40:55.878Z,50.00
2023-04-19T22:43:23.869Z,48.00
2023-04-19T22:45:51.849Z,49.00
2023-04-19T22:48:19.834Z,47.50
2023-04-19T22:50:47.754Z,45.00
2023-04-19T22:53:15.949Z,44.00
2023-04-19T22:55:44.034Z,44.00
2023-04-19T22:58:11.936Z,40.50
2023-04-19T23:00:41.747Z,40.00
2023-04-19T23:03:09.627Z,39.50
2023-04-19T23:05:37.916Z,39.00
2023-04-19T23:08:05.845Z,42.00
2023-04-19T23:10:38.210Z,45.00
2023-04-19T23:13:07.025Z,43.00
2023-04-19T23:15:35.169Z,41.00
2023-04-19T23:18:03.917Z,42.00
2023-04-19T23:20:32.179Z,40.00
2023-04-19T23:23:00.165Z,41.00
2023-04-19T23:25:28.223Z,59.00
2023-04-19T23:27:56.263Z,57.50
2023-04-19T23:30:26.741Z,56.00
2023-04-19T23:35:22.745Z,62.00
2023-04-19T23:37:51.447Z,53.50
2023-04-19T23:40:19.644Z,52.00
2023-04-19T23:42:47.656Z,54.50
2023-04-19T23:45:17.190Z,51.00
2023-04-19T23:47:46.951Z,47.33
2023-04-19T23:50:15.243Z,47.50
2023-04-19T23:55:13.248Z,41.00
